createdAt,value
2017-10-17T14:47:12.908Z,1011.48
2017-10-17T14:48:23.045Z,1011.55
2017-10-17T14:49:33.107Z,1011.44
2017-10-17T14:50:43.011Z,1011.63
2017-10-17T14:51:53.215Z,1011.64
2017-10-17T14:53:03.334Z,1011.64
2017-10-17T14:54:13.905Z,1011.57
2017-10-17T14:55:24.109Z,1011.6
2017-10-17T14:56:33.883Z,1011.53
2017-10-17T14:57:43.972Z,1011.41
2017-10-17T14:58:53.427Z,1011.27
2017-10-17T15:00:03.561Z,1011.38
2017-10-17T15:01:12.928Z,1011.37
2017-10-17T15:04:27.872Z,1011.33
2017-10-17T15:05:37.895Z,1011.37
2017-10-17T15:06:47.611Z,1011.36
2017-10-17T15:07:57.638Z,1011.37
2017-10-17T15:09:07.004Z,1011.35
2017-10-17T15:10:17.032Z,1011.35
2017-10-17T15:11:26.742Z,1011.37
2017-10-17T15:12:36.787Z,1011.34
2017-10-17T15:13:46.475Z,1011.33
2017-10-17T15:14:56.286Z,1011.33
2017-10-17T15:16:05.639Z,1011.32
2017-10-17T15:17:15.335Z,1011.33
2017-10-17T15:18:25.383Z,1011.28
2017-10-17T15:19:35.759Z,1011.28
2017-10-17T15:20:45.117Z,1011.28
2017-10-17T15:21:55.174Z,1011.29
2017-10-17T15:23:04.868Z,1011.3
2017-10-17T15:24:14.930Z,1011.3
2017-10-17T15:25:25.051Z,1011.27
2017-10-17T15:26:35.097Z,1011.28
2017-10-17T15:27:45.137Z,1011.24
2017-10-17T15:28:55.490Z,1011.3
2017-10-17T15:30:05.516Z,1011.26
2017-10-17T15:31:15.546Z,1011.21
2017-10-17T15:32:25.909Z,1011.24
2017-10-17T15:33:36.279Z,1011.21
2017-10-17T15:34:46.304Z,1011.2
2017-10-17T15:35:56.320Z,1011.2
2017-10-17T15:37:06.361Z,1011.17
2017-10-17T15:38:16.404Z,1011.16
2017-10-17T15:39:26.466Z,1011.22
2017-10-17T15:40:36.507Z,1011.24
2017-10-17T15:41:46.886Z,1011.24
2017-10-17T15:42:56.591Z,1011.2
2017-10-17T15:44:06.294Z,1011.18
2017-10-17T15:45:16.672Z,1011.16
2017-10-17T15:46:26.702Z,1011.11
2017-10-17T15:47:36.396Z,1011.16
2017-10-17T15:48:46.081Z,1011.11
2017-10-17T15:49:55.776Z,1011.12
2017-10-17T15:51:05.464Z,1011.12
2017-10-17T15:52:15.832Z,1011.08
2017-10-17T15:53:25.542Z,1011.08
2017-10-17T15:54:35.247Z,1011.07
2017-10-17T15:55:44.976Z,1011.03
2017-10-17T15:56:55.395Z,1011.03
2017-10-17T15:58:05.766Z,1011.03
2017-10-17T15:59:15.464Z,1011.02
2017-10-17T16:00:25.828Z,1010.98
2017-10-17T16:01:35.503Z,1011.02
2017-10-17T16:02:45.191Z,1011
2017-10-17T16:03:55.239Z,1011
2017-10-17T16:05:05.277Z,1010.98
2017-10-17T16:06:14.980Z,1010.98
2017-10-17T16:07:24.675Z,1010.99
2017-10-17T16:08:34.733Z,1010.96
2017-10-17T16:09:44.093Z,1010.97
2017-10-17T16:10:54.153Z,1010.96
2017-10-17T16:12:03.885Z,1010.95
2017-10-17T16:13:13.263Z,1010.94
2017-10-17T16:14:23.348Z,1010.92
2017-10-17T16:15:33.054Z,1010.96
2017-10-17T16:16:42.780Z,1010.95
2017-10-17T16:17:52.866Z,1011
2017-10-17T16:19:02.595Z,1010.93
2017-10-17T16:20:12.694Z,1010.97
2017-10-17T16:21:22.065Z,1010.97
2017-10-17T16:22:32.524Z,1010.93
2017-10-17T16:23:42.238Z,1010.94
2017-10-17T16:24:51.256Z,1010.94
2017-10-17T16:26:00.992Z,1010.95
2017-10-17T16:27:11.032Z,1010.93
2017-10-17T16:28:20.490Z,1010.97
2017-10-17T16:29:30.535Z,1010.96
2017-10-17T16:30:40.574Z,1011.03
2017-10-17T16:31:50.612Z,1011
2017-10-17T16:33:00.659Z,1011.02
2017-10-17T16:34:10.695Z,1011
2017-10-17T16:35:20.048Z,1010.96
2017-10-17T16:36:30.448Z,1010.95
2017-10-17T16:37:40.157Z,1010.9
2017-10-17T16:38:50.555Z,1010.94
2017-10-17T16:40:00.608Z,1010.9
2017-10-17T16:41:10.400Z,1010.89
2017-10-17T16:42:20.467Z,1010.91
2017-10-17T16:43:30.165Z,1010.91
2017-10-17T16:44:40.220Z,1010.95
2017-10-17T16:45:50.287Z,1010.95
2017-10-17T16:47:00.319Z,1010.93
2017-10-17T16:48:09.368Z,1010.95
2017-10-17T16:49:19.077Z,1010.96
2017-10-17T16:50:29.103Z,1010.98
2017-10-17T16:51:39.464Z,1011
2017-10-17T16:52:49.813Z,1011.03
2017-10-17T16:53:59.844Z,1010.99
2017-10-17T16:55:09.539Z,1010.99
2017-10-17T16:56:19.580Z,1011.02
2017-10-17T16:57:29.596Z,1011
2017-10-17T16:58:39.288Z,1011.03
2017-10-17T16:59:48.980Z,1011.01
2017-10-17T17:00:58.999Z,1011.03
2017-10-17T17:02:08.690Z,1011.05
2017-10-17T17:03:19.066Z,1011.03
2017-10-17T17:04:29.095Z,1011.02
2017-10-17T17:05:38.122Z,1010.99
2017-10-17T17:06:47.822Z,1011
2017-10-17T17:07:57.510Z,1011.01
2017-10-17T17:09:07.550Z,1011.02
2017-10-17T17:10:17.566Z,1011.07
2017-10-17T17:11:27.971Z,1011.05
2017-10-17T17:12:38.046Z,1011.06
2017-10-17T17:13:47.751Z,1011.1
2017-10-17T17:14:57.456Z,1011.08
2017-10-17T17:16:07.826Z,1011.04
2017-10-17T17:17:17.539Z,1011.08
2017-10-17T17:18:27.220Z,1011.02
2017-10-17T17:19:37.232Z,1011.03
2017-10-17T17:20:47.252Z,1011.03
2017-10-17T17:21:56.931Z,1011.04
2017-10-17T17:23:06.985Z,1011.02
2017-10-17T17:24:17.015Z,1011.01
2017-10-17T17:25:27.037Z,1011.06
2017-10-17T17:26:36.390Z,1011.07
2017-10-17T17:27:46.404Z,1011.05
2017-10-17T17:28:56.103Z,1011.08
2017-10-17T17:30:05.459Z,1011.1
2017-10-17T17:31:15.157Z,1011.1
2017-10-17T17:32:25.551Z,1011.06
2017-10-17T17:33:35.234Z,1011.09
2017-10-17T17:34:45.587Z,1011.09
2017-10-17T17:35:55.632Z,1011.05
2017-10-17T17:37:05.089Z,1011.04
2017-10-17T17:38:15.145Z,1011.05
2017-10-17T17:39:25.665Z,1011.1
2017-10-17T17:40:36.040Z,1011.1
2017-10-17T17:41:46.067Z,1011.11
2017-10-17T17:42:56.104Z,1011.07
2017-10-17T17:44:06.138Z,1011.12
2017-10-17T17:45:16.202Z,1011.11
2017-10-17T17:46:25.887Z,1011.08
2017-10-17T17:47:35.254Z,1011.08
2017-10-17T17:48:45.278Z,1011.01
2017-10-17T17:49:54.968Z,1011.01
2017-10-17T17:51:04.656Z,1011.02
2017-10-17T17:52:15.014Z,1011.01
2017-10-17T17:53:24.369Z,1011
2017-10-17T17:54:34.097Z,1010.97
2017-10-17T17:55:43.782Z,1010.95
2017-10-17T17:56:54.143Z,1010.91
2017-10-17T17:58:03.511Z,1010.91
2017-10-17T17:59:13.569Z,1010.95
2017-10-17T18:00:23.615Z,1010.91
2017-10-17T18:01:33.639Z,1010.92
2017-10-17T18:02:43.329Z,1010.92
2017-10-17T18:03:53.457Z,1010.95
2017-10-17T18:05:02.485Z,1010.97
2017-10-17T18:06:12.843Z,1010.94
2017-10-17T18:07:22.563Z,1010.93
2017-10-17T18:08:32.249Z,1010.94
2017-10-17T18:09:41.934Z,1010.95
2017-10-17T18:10:51.983Z,1010.95
2017-10-17T18:12:01.673Z,1010.98
2017-10-17T18:13:11.745Z,1010.97
2017-10-17T18:14:21.764Z,1010.95
2017-10-17T18:15:32.122Z,1010.95
2017-10-17T18:16:41.469Z,1010.95
2017-10-17T18:17:51.161Z,1010.95
2017-10-17T18:19:01.205Z,1010.91
2017-10-17T18:20:10.909Z,1010.9
2017-10-17T18:21:20.986Z,1010.91
2017-10-17T18:22:30.447Z,1010.87
2017-10-17T18:23:40.989Z,1010.94
2017-10-17T18:24:50.237Z,1010.92
2017-10-17T18:26:01.302Z,1010.92
2017-10-17T18:27:10.730Z,1010.93
2017-10-17T18:28:21.292Z,1010.95
2017-10-17T18:29:31.178Z,1010.95
2017-10-17T18:30:40.931Z,1010.9
2017-10-17T18:31:50.308Z,1010.89
2017-10-17T18:33:00.014Z,1010.84
2017-10-17T18:34:09.944Z,1010.79
2017-10-17T18:35:19.798Z,1010.81
2017-10-17T18:36:30.034Z,1010.8
2017-10-17T18:37:39.796Z,1010.73
2017-10-17T18:38:49.968Z,1010.74
2017-10-17T18:40:00.090Z,1010.75
2017-10-17T18:41:09.979Z,1010.75
2017-10-17T18:42:19.671Z,1010.67
2017-10-17T18:43:29.707Z,1010.72
2017-10-17T18:44:39.928Z,1010.71
2017-10-17T18:45:49.395Z,1010.72
2017-10-17T18:46:58.572Z,1010.73
2017-10-17T18:48:08.775Z,1010.68
2017-10-17T18:49:19.034Z,1010.68
2017-10-17T18:50:29.325Z,1010.69
2017-10-17T18:51:39.903Z,1010.73
2017-10-17T18:52:49.728Z,1010.67
2017-10-17T18:53:59.282Z,1010.7
2017-10-17T18:55:09.154Z,1010.67
2017-10-17T18:56:18.773Z,1010.69
2017-10-17T18:57:28.397Z,1010.66
2017-10-17T18:58:38.280Z,1010.69
2017-10-17T18:59:48.102Z,1010.68
2017-10-17T19:00:58.707Z,1010.69
2017-10-17T19:02:08.254Z,1010.74
2017-10-17T19:03:18.093Z,1010.7
2017-10-17T19:04:27.859Z,1010.66
2017-10-17T19:05:37.986Z,1010.62
2017-10-17T19:06:48.521Z,1010.61
2017-10-17T19:07:58.371Z,1010.58
2017-10-17T19:09:07.771Z,1010.57
2017-10-17T19:10:16.970Z,1010.6
2017-10-17T19:11:27.172Z,1010.6
2017-10-17T19:12:36.984Z,1010.57
2017-10-17T19:13:47.059Z,1010.57
2017-10-17T19:14:56.935Z,1010.58
2017-10-17T19:16:07.476Z,1010.56
2017-10-17T19:17:17.026Z,1010.51
2017-10-17T19:18:27.153Z,1010.58
2017-10-17T19:19:37.329Z,1010.53
2017-10-17T19:20:47.550Z,1010.46
2017-10-17T19:21:57.076Z,1010.52
2017-10-17T19:23:07.323Z,1010.5
2017-10-17T19:24:17.184Z,1010.51
2017-10-17T19:25:27.144Z,1010.47
2017-10-17T19:26:37.613Z,1010.45
2017-10-17T19:27:47.766Z,1010.44
2017-10-17T19:28:57.851Z,1010.46
2017-10-17T19:30:08.005Z,1010.47
2017-10-17T19:31:18.126Z,1010.45
2017-10-17T19:32:27.962Z,1010.46
2017-10-17T19:33:38.497Z,1010.44
2017-10-17T19:34:47.688Z,1010.45
2017-10-17T19:35:58.146Z,1010.45
2017-10-17T19:37:08.666Z,1010.41
2017-10-17T19:38:18.511Z,1010.39
2017-10-17T19:39:28.823Z,1010.42
2017-10-17T19:40:38.644Z,1010.41
2017-10-17T19:41:48.719Z,1010.4
2017-10-17T19:42:58.559Z,1010.4
2017-10-17T19:44:08.424Z,1010.4
2017-10-17T19:45:18.192Z,1010.37
2017-10-17T19:46:27.628Z,1010.39
2017-10-17T19:47:37.455Z,1010.33
2017-10-17T19:48:47.237Z,1010.33
2017-10-17T19:49:57.713Z,1010.3
2017-10-17T19:51:08.229Z,1010.31
2017-10-17T19:52:17.800Z,1010.26
2017-10-17T19:53:27.747Z,1010.23
2017-10-17T19:54:36.876Z,1010.24
2017-10-17T19:55:47.106Z,1010.2
2017-10-17T19:56:57.006Z,1010.23
2017-10-17T19:58:07.247Z,1010.2
2017-10-17T19:59:17.386Z,1010.17
2017-10-17T20:00:27.904Z,1010.12
2017-10-17T20:01:38.150Z,1010.12
2017-10-17T20:02:47.633Z,1010.11
2017-10-17T20:03:57.707Z,1010.06
2017-10-17T20:05:07.880Z,1010.08
2017-10-17T20:06:17.724Z,1010.06
2017-10-17T20:07:27.292Z,1010.11
2017-10-17T20:08:37.020Z,1010.12
2017-10-17T20:09:46.834Z,1010.1
2017-10-17T20:10:57.082Z,1010.08
2017-10-17T20:12:07.755Z,1010.09
2017-10-17T20:13:17.227Z,1010.08
2017-10-17T20:14:26.961Z,1010.05
2017-10-17T20:15:37.480Z,1010.08
2017-10-17T20:16:47.390Z,1010.09
2017-10-17T20:17:57.605Z,1010.08
2017-10-17T20:19:07.728Z,1010.03
2017-10-17T20:20:17.814Z,1010.05
2017-10-17T20:21:27.950Z,1010.01
2017-10-17T20:22:37.353Z,1010.04
2017-10-17T20:23:47.531Z,1010.07
2017-10-17T20:24:57.676Z,1010.04
2017-10-17T20:26:08.073Z,1010
2017-10-17T20:27:18.237Z,1010.02
2017-10-17T20:28:27.944Z,1010.03
2017-10-17T20:29:37.988Z,1010.03
2017-10-17T20:30:47.362Z,1010.01
2017-10-17T20:31:56.100Z,1010.03
2017-10-17T20:33:06.268Z,1010.03
2017-10-17T20:34:16.557Z,1010.04
2017-10-17T20:35:25.879Z,1010.02
2017-10-17T20:36:36.261Z,1010.04
2017-10-17T20:37:45.620Z,1010.02
2017-10-17T20:38:55.661Z,1010
2017-10-17T20:40:06.085Z,1010
2017-10-17T20:41:16.213Z,1009.98
2017-10-17T20:42:26.432Z,1010
2017-10-17T20:43:36.232Z,1009.95
2017-10-17T20:44:46.733Z,1009.99
2017-10-17T20:45:56.117Z,1009.97
2017-10-17T20:47:06.164Z,1009.97
2017-10-17T20:48:16.241Z,1009.94
2017-10-17T20:49:26.314Z,1009.93
2017-10-17T20:50:36.369Z,1009.93
2017-10-17T20:51:45.753Z,1009.96
2017-10-17T20:52:55.813Z,1009.86
2017-10-17T20:54:06.182Z,1009.9
2017-10-17T20:55:16.316Z,1009.87
2017-10-17T20:56:26.065Z,1009.81
2017-10-17T20:57:36.141Z,1009.84
2017-10-17T20:58:45.507Z,1009.87
2017-10-17T20:59:54.903Z,1009.84
2017-10-17T21:01:04.262Z,1009.81
2017-10-17T21:02:14.309Z,1009.84
2017-10-17T21:03:23.715Z,1009.81
2017-10-17T21:04:33.766Z,1009.84
2017-10-17T21:05:43.788Z,1009.82
2017-10-17T21:06:54.157Z,1009.83
2017-10-17T21:08:03.544Z,1009.81
2017-10-17T21:09:13.620Z,1009.76
2017-10-17T21:10:23.311Z,1009.77
2017-10-17T21:11:32.703Z,1009.74
2017-10-17T21:12:42.400Z,1009.75
2017-10-17T21:13:52.107Z,1009.77
2017-10-17T21:15:01.481Z,1009.74
2017-10-17T21:16:11.517Z,1009.75
2017-10-17T21:17:21.537Z,1009.72
2017-10-17T21:18:30.888Z,1009.73
2017-10-17T21:19:41.038Z,1009.69
2017-10-17T21:20:50.408Z,1009.72
2017-10-17T21:22:00.776Z,1009.69
2017-10-17T21:23:10.466Z,1009.71
2017-10-17T21:24:20.850Z,1009.72
2017-10-17T21:25:31.224Z,1009.68
2017-10-17T21:26:40.670Z,1009.66
2017-10-17T21:27:50.699Z,1009.65
2017-10-17T21:29:01.067Z,1009.67
2017-10-17T21:30:10.465Z,1009.68
2017-10-17T21:31:20.219Z,1009.67
2017-10-17T21:32:29.586Z,1009.75
2017-10-17T21:33:38.936Z,1009.71
2017-10-17T21:34:47.622Z,1009.71
2017-10-17T21:35:57.643Z,1009.73
2017-10-17T21:37:07.690Z,1009.76
2017-10-17T21:38:17.711Z,1009.73
2017-10-17T21:39:28.063Z,1009.67
2017-10-17T21:40:38.105Z,1009.68
2017-10-17T21:41:48.134Z,1009.68
2017-10-17T21:42:57.482Z,1009.61
2017-10-17T21:44:06.857Z,1009.68
2017-10-17T21:45:17.210Z,1009.66
2017-10-17T21:46:26.976Z,1009.6
2017-10-17T21:47:36.390Z,1009.59
2017-10-17T21:48:46.443Z,1009.59
2017-10-17T21:49:55.458Z,1009.58
2017-10-17T21:51:05.472Z,1009.53
2017-10-17T21:52:15.499Z,1009.54
2017-10-17T21:53:25.860Z,1009.56
2017-10-17T21:54:35.586Z,1009.53
2017-10-17T21:55:45.610Z,1009.52
2017-10-17T21:56:56.005Z,1009.5
2017-10-17T21:58:06.058Z,1009.49
2017-10-17T21:59:16.089Z,1009.51
2017-10-17T22:00:25.832Z,1009.51
2017-10-17T22:01:35.525Z,1009.43
2017-10-17T22:02:45.546Z,1009.47
2017-10-17T22:03:55.575Z,1009.41
2017-10-17T22:05:05.265Z,1009.39
2017-10-17T22:06:15.355Z,1009.42
2017-10-17T22:07:25.728Z,1009.42
2017-10-17T22:08:35.794Z,1009.41
2017-10-17T22:09:45.827Z,1009.36
2017-10-17T22:10:55.516Z,1009.31
2017-10-17T22:12:05.235Z,1009.31
2017-10-17T22:13:15.302Z,1009.36
2017-10-17T22:14:24.987Z,1009.28
2017-10-17T22:15:34.676Z,1009.24
2017-10-17T22:16:44.727Z,1009.25
2017-10-17T22:17:53.770Z,1009.26
2017-10-17T22:19:03.454Z,1009.19
2017-10-17T22:20:13.476Z,1009.19
2017-10-17T22:21:23.506Z,1009.18
2017-10-17T22:22:33.868Z,1009.17
2017-10-17T22:23:43.576Z,1009.12
2017-10-17T22:24:52.930Z,1009.15
2017-10-17T22:26:03.293Z,1009.14
2017-10-17T22:27:13.310Z,1009.1
2017-10-17T22:28:23.320Z,1009.13
2017-10-17T22:29:33.012Z,1009.11
2017-10-17T22:30:42.690Z,1009.08
2017-10-17T22:31:52.720Z,1009.06
2017-10-17T22:33:01.743Z,1009.02
2017-10-17T22:34:11.773Z,1009.03
2017-10-17T22:35:21.520Z,1009.03
2017-10-17T22:36:31.564Z,1009.01
2017-10-17T22:37:41.283Z,1009.01
2017-10-17T22:38:50.636Z,1009
2017-10-17T22:40:00.316Z,1008.97
2017-10-17T22:41:10.698Z,1008.98
2017-10-17T22:42:20.903Z,1008.96
2017-10-17T22:43:30.918Z,1008.92
2017-10-17T22:44:40.947Z,1008.92
2017-10-17T22:45:50.632Z,1008.89
2017-10-17T22:46:59.978Z,1008.86
2017-10-17T22:48:10.046Z,1008.82
2017-10-17T22:49:20.062Z,1008.84
2017-10-17T22:50:29.742Z,1008.81
2017-10-17T22:51:39.421Z,1008.81
2017-10-17T22:52:49.123Z,1008.82
2017-10-17T22:53:58.838Z,1008.78
2017-10-17T22:55:08.906Z,1008.77
2017-10-17T22:56:18.951Z,1008.78
2017-10-17T22:57:28.293Z,1008.74
2017-10-17T22:58:38.342Z,1008.73
2017-10-17T22:59:48.033Z,1008.71
2017-10-17T23:00:57.382Z,1008.78
2017-10-17T23:02:07.077Z,1008.77
2017-10-17T23:03:16.765Z,1008.74
2017-10-17T23:04:26.446Z,1008.74
2017-10-17T23:05:36.138Z,1008.76
2017-10-17T23:06:46.166Z,1008.73
2017-10-17T23:07:55.180Z,1008.75
2017-10-17T23:09:04.883Z,1008.76
2017-10-17T23:10:14.909Z,1008.72
2017-10-17T23:11:24.936Z,1008.71
2017-10-17T23:12:34.638Z,1008.7
2017-10-17T23:13:44.650Z,1008.69
2017-10-17T23:14:55.010Z,1008.69
2017-10-17T23:16:04.359Z,1008.67
2017-10-17T23:17:14.729Z,1008.67
2017-10-17T23:18:24.757Z,1008.63
2017-10-17T23:19:34.770Z,1008.64
2017-10-17T23:20:45.117Z,1008.59
2017-10-17T23:21:54.788Z,1008.59
2017-10-17T23:23:04.822Z,1008.58
2017-10-17T23:24:15.180Z,1008.57
2017-10-17T23:25:24.894Z,1008.57
2017-10-17T23:26:34.589Z,1008.56
2017-10-17T23:27:44.616Z,1008.55
2017-10-17T23:28:55.080Z,1008.56
2017-10-17T23:30:05.290Z,1008.5
2017-10-17T23:31:15.666Z,1008.51
2017-10-17T23:32:24.686Z,1008.5
2017-10-17T23:33:35.037Z,1008.5
2017-10-17T23:34:45.057Z,1008.49
2017-10-17T23:35:55.409Z,1008.49
2017-10-17T23:37:05.775Z,1008.45
2017-10-17T23:38:15.457Z,1008.47
2017-10-17T23:39:25.503Z,1008.46
2017-10-17T23:40:35.539Z,1008.47
2017-10-17T23:41:45.561Z,1008.44
2017-10-17T23:42:55.921Z,1008.43
2017-10-17T23:44:05.612Z,1008.42
2017-10-17T23:45:15.305Z,1008.47
2017-10-17T23:46:25.330Z,1008.44
2017-10-17T23:47:34.338Z,1008.4
2017-10-17T23:48:44.018Z,1008.41
2017-10-17T23:49:53.040Z,1008.41
2017-10-17T23:51:02.735Z,1008.4
2017-10-17T23:52:12.459Z,1008.39
2017-10-17T23:53:22.475Z,1008.43
2017-10-17T23:54:32.165Z,1008.44
2017-10-17T23:55:41.851Z,1008.43
2017-10-17T23:56:51.526Z,1008.39
2017-10-17T23:58:01.555Z,1008.39
2017-10-17T23:59:11.582Z,1008.38
